createdAt,value
2022-08-22T00:03:02.139Z,18.40
2022-08-22T00:06:24.572Z,16.58
2022-08-22T00:10:05.063Z,16.55
2022-08-22T00:18:54.450Z,16.53
2022-08-22T00:22:05.534Z,16.58
2022-08-22T00:25:24.880Z,16.58
2022-08-22T00:33:59.041Z,16.57
2022-08-22T00:36:47.817Z,16.55
2022-08-22T00:39:38.173Z,16.53
2022-08-22T00:43:10.775Z,16.52
2022-08-22T00:46:54.374Z,16.50
2022-08-22T00:49:41.641Z,16.47
2022-08-22T00:52:26.418Z,16.49
2022-08-22T00:55:39.462Z,16.51
2022-08-22T00:58:50.694Z,16.47
2022-08-22T01:01:52.571Z,16.42
2022-08-22T01:04:53.939Z,16.41
2022-08-22T01:08:25.155Z,16.43
2022-08-22T01:11:09.645Z,16.44
2022-08-22T01:14:10.072Z,16.38
2022-08-22T01:17:25.211Z,16.30
2022-08-22T01:21:02.595Z,16.27
2022-08-22T01:24:18.939Z,16.25
2022-08-22T01:27:07.978Z,16.24
2022-08-22T01:30:30.641Z,16.24
2022-08-22T01:33:47.693Z,16.25
2022-08-22T01:37:05.789Z,16.24
2022-08-22T01:39:50.112Z,16.26
2022-08-22T01:43:10.174Z,16.28
2022-08-22T01:46:29.283Z,16.26
2022-08-22T01:49:30.476Z,16.25
2022-08-22T01:52:40.879Z,16.24
2022-08-22T01:55:37.424Z,16.25
2022-08-22T01:58:24.944Z,16.29
2022-08-22T02:01:28.937Z,16.33
2022-08-22T02:05:03.536Z,16.35
2022-08-22T02:08:02.756Z,16.34
2022-08-22T02:10:56.726Z,16.35
2022-08-22T02:14:10.373Z,16.36
2022-08-22T02:17:09.360Z,16.35
2022-08-22T02:20:04.386Z,16.33
2022-08-22T02:22:56.967Z,16.34
2022-08-22T02:25:33.455Z,16.33
2022-08-22T02:28:13.207Z,16.35
2022-08-22T02:31:07.706Z,16.35
2022-08-22T02:33:41.333Z,16.37
2022-08-22T02:36:18.927Z,16.39
2022-08-22T02:39:34.666Z,16.39
2022-08-22T02:42:38.424Z,16.38
2022-08-22T02:45:52.361Z,16.37
2022-08-22T02:48:44.306Z,16.39
2022-08-22T02:51:59.320Z,16.41
2022-08-22T02:55:00.468Z,16.41
2022-08-22T02:57:55.347Z,16.41
2022-08-22T03:00:41.388Z,16.41
2022-08-22T03:03:29.086Z,16.42
2022-08-22T03:06:09.651Z,16.42
2022-08-22T03:09:01.120Z,16.44
2022-08-22T03:11:42.104Z,16.45
2022-08-22T03:14:26.412Z,16.47
2022-08-22T03:17:12.639Z,16.47
2022-08-22T03:20:11.040Z,16.46
2022-08-22T03:23:02.958Z,16.46
2022-08-22T03:25:52.716Z,16.44
2022-08-22T03:29:06.430Z,16.42
2022-08-22T03:31:36.569Z,16.39
2022-08-22T03:34:27.435Z,16.40
2022-08-22T03:37:27.006Z,16.41
2022-08-22T03:40:46.614Z,16.40
2022-08-22T03:43:56.698Z,16.36
2022-08-22T03:46:56.082Z,16.34
2022-08-22T03:50:19.448Z,16.34
2022-08-22T03:53:20.570Z,16.34
2022-08-22T03:56:34.133Z,16.36
2022-08-22T03:59:27.540Z,16.36
2022-08-22T04:02:43.084Z,16.36
2022-08-22T04:05:40.800Z,16.34
2022-08-22T04:08:30.392Z,16.33
2022-08-22T04:11:06.101Z,16.32
2022-08-22T04:13:53.622Z,16.30
2022-08-22T04:17:04.277Z,16.28
2022-08-22T04:20:21.318Z,16.23
2022-08-22T04:23:21.034Z,16.17
2022-08-22T04:26:12.368Z,16.14
2022-08-22T04:28:51.369Z,16.15
2022-08-22T04:31:35.047Z,16.17
2022-08-22T04:34:21.411Z,16.18
2022-08-22T04:37:33.858Z,16.16
2022-08-22T04:40:19.838Z,16.17
2022-08-22T04:43:25.842Z,16.18
2022-08-22T04:46:11.537Z,16.16
2022-08-22T04:49:09.421Z,16.16
2022-08-22T04:52:18.665Z,16.17
2022-08-22T04:55:06.052Z,16.16
2022-08-22T04:58:05.997Z,16.15
2022-08-22T05:01:12.125Z,16.13
2022-08-22T05:03:51.899Z,16.12
2022-08-22T05:06:26.651Z,16.12
2022-08-22T05:09:03.248Z,16.13
2022-08-22T05:11:36.877Z,16.13
2022-08-22T05:14:24.115Z,16.13
2022-08-22T05:16:58.094Z,16.13
2022-08-22T05:19:34.945Z,16.13
2022-08-22T05:22:06.525Z,16.13
2022-08-22T05:24:48.721Z,16.14
2022-08-22T05:27:40.717Z,16.15
2022-08-22T05:30:16.641Z,16.15
2022-08-22T05:32:55.879Z,16.18
2022-08-22T05:35:48.614Z,16.22
2022-08-22T05:38:28.101Z,16.26
2022-08-22T05:41:09.636Z,16.30
2022-08-22T05:43:45.606Z,16.34
2022-08-22T05:46:27.162Z,16.36
2022-08-22T05:49:04.625Z,16.38
2022-08-22T05:51:55.283Z,16.31
2022-08-22T05:54:33.656Z,16.31
2022-08-22T05:57:26.303Z,16.33
2022-08-22T06:00:12.045Z,16.35
2022-08-22T06:03:17.502Z,16.37
2022-08-22T06:05:56.603Z,16.38
2022-08-22T06:08:35.180Z,16.39
2022-08-22T06:11:51.958Z,16.41
2022-08-22T06:14:42.653Z,16.41
2022-08-22T06:17:43.740Z,16.42
2022-08-22T06:20:23.860Z,16.43
2022-08-22T06:23:00.847Z,16.45
2022-08-22T06:25:39.211Z,16.47
2022-08-22T06:28:17.737Z,16.49
2022-08-22T06:30:51.836Z,16.52
2022-08-22T06:33:29.603Z,16.55
2022-08-22T06:36:30.728Z,16.58
2022-08-22T06:39:30.433Z,16.59
2022-08-22T06:42:45.798Z,16.59
2022-08-22T06:45:33.150Z,16.61
2022-08-22T06:48:08.326Z,16.64
2022-08-22T06:50:41.725Z,16.67
2022-08-22T06:53:31.911Z,16.70
2022-08-22T06:56:09.283Z,16.72
2022-08-22T06:58:44.708Z,16.73
2022-08-22T07:01:31.488Z,16.76
2022-08-22T07:04:17.003Z,16.78
2022-08-22T07:06:51.819Z,16.80
2022-08-22T07:09:34.848Z,16.80
2022-08-22T07:12:23.339Z,16.83
2022-08-22T07:15:19.319Z,16.85
2022-08-22T07:18:03.883Z,16.91
2022-08-22T07:20:46.714Z,16.97
2022-08-22T07:23:49.621Z,17.01
2022-08-22T07:26:44.944Z,17.05
2022-08-22T07:29:44.808Z,17.12
2022-08-22T07:32:31.216Z,17.16
2022-08-22T07:35:17.507Z,17.22
2022-08-22T07:38:00.886Z,17.30
2022-08-22T07:41:02.194Z,17.35
2022-08-22T07:43:50.614Z,17.40
2022-08-22T07:46:40.805Z,17.42
2022-08-22T07:49:38.786Z,17.45
2022-08-22T07:52:23.629Z,17.47
2022-08-22T07:55:15.805Z,17.50
2022-08-22T07:57:58.522Z,17.52
2022-08-22T08:00:30.539Z,17.54
2022-08-22T08:03:09.949Z,17.57
2022-08-22T08:05:49.071Z,17.59
2022-08-22T08:08:55.157Z,17.63
2022-08-22T08:11:39.001Z,17.64
2022-08-22T08:14:20.171Z,17.67
2022-08-22T08:17:32.243Z,17.71
2022-08-22T08:20:14.159Z,17.74
2022-08-22T08:23:00.933Z,17.77
2022-08-22T08:26:04.149Z,17.81
2022-08-22T08:28:58.511Z,17.81
2022-08-22T08:31:44.806Z,17.82
2022-08-22T08:34:25.905Z,17.88
2022-08-22T08:37:27.174Z,17.90
2022-08-22T08:40:12.587Z,17.92
2022-08-22T08:43:26.115Z,17.94
2022-08-22T08:46:08.101Z,17.92
2022-08-22T08:49:21.027Z,17.90
2022-08-22T08:52:27.475Z,17.90
2022-08-22T08:55:22.679Z,17.87
2022-08-22T08:58:28.296Z,17.90
2022-08-22T09:01:29.810Z,17.93
2022-08-22T09:04:38.419Z,17.96
2022-08-22T09:08:12.677Z,18.02
2022-08-22T09:11:58.037Z,18.08
2022-08-22T09:14:56.959Z,18.07
2022-08-22T09:17:57.340Z,18.11
2022-08-22T09:21:07.816Z,18.13
2022-08-22T09:24:20.334Z,18.12
2022-08-22T09:27:01.646Z,18.11
2022-08-22T09:29:55.204Z,18.16
2022-08-22T09:33:03.658Z,18.21
2022-08-22T09:36:28.029Z,18.26
2022-08-22T09:39:27.373Z,18.31
2022-08-22T09:42:32.457Z,18.38
2022-08-22T09:45:13.869Z,18.42
2022-08-22T09:48:07.655Z,18.50
2022-08-22T09:51:32.417Z,18.58
2022-08-22T09:54:36.344Z,18.61
2022-08-22T09:57:22.699Z,18.64
2022-08-22T09:59:58.409Z,18.65
2022-08-22T10:03:03.526Z,18.69
2022-08-22T10:05:45.639Z,18.75
2022-08-22T10:08:51.541Z,18.80
2022-08-22T10:11:38.758Z,18.87
2022-08-22T10:14:28.589Z,18.93
2022-08-22T10:17:30.051Z,19.00
2022-08-22T10:20:37.326Z,19.02
2022-08-22T10:24:07.981Z,19.07
2022-08-22T10:27:05.356Z,19.10
2022-08-22T10:30:08.664Z,19.12
2022-08-22T10:33:06.258Z,19.14
2022-08-22T10:36:05.120Z,19.19
2022-08-22T10:39:09.369Z,19.31
2022-08-22T10:42:19.387Z,19.42
2022-08-22T10:45:48.952Z,19.47
2022-08-22T10:48:53.036Z,19.46
2022-08-22T10:51:59.959Z,19.45
2022-08-22T10:55:09.836Z,19.39
2022-08-22T10:58:14.362Z,19.32
2022-08-22T11:01:38.093Z,19.36
2022-08-22T11:04:28.572Z,19.44
2022-08-22T11:07:32.032Z,19.52
2022-08-22T11:10:35.077Z,19.60
2022-08-22T11:13:50.750Z,19.60
2022-08-22T11:17:32.274Z,19.57
2022-08-22T11:20:22.370Z,19.57
2022-08-22T11:23:38.865Z,19.59
2022-08-22T11:26:47.484Z,19.64
2022-08-22T11:30:05.836Z,19.66
2022-08-22T11:32:59.575Z,19.71
2022-08-22T11:36:11.589Z,19.78
2022-08-22T11:39:01.787Z,19.84
2022-08-22T11:42:02.084Z,19.89
2022-08-22T11:44:57.706Z,19.93
2022-08-22T11:47:41.641Z,19.96
2022-08-22T11:50:46.911Z,19.97
2022-08-22T11:53:41.597Z,19.99
2022-08-22T11:56:41.527Z,19.97
2022-08-22T11:59:54.909Z,19.94
2022-08-22T12:03:09.707Z,19.92
2022-08-22T12:06:26.183Z,19.90
2022-08-22T12:09:38.363Z,19.90
2022-08-22T12:12:27.275Z,19.94
2022-08-22T12:15:24.416Z,19.97
2022-08-22T12:18:43.611Z,20.00
2022-08-22T12:22:05.251Z,19.98
2022-08-22T12:25:17.510Z,19.99
2022-08-22T12:28:22.587Z,20.08
2022-08-22T12:31:32.191Z,20.14
2022-08-22T12:34:39.878Z,20.18
2022-08-22T12:37:25.879Z,20.18
2022-08-22T12:40:26.395Z,20.19
2022-08-22T12:43:52.417Z,20.26
2022-08-22T12:47:01.090Z,20.41
2022-08-22T12:50:21.540Z,20.61
2022-08-22T12:53:51.656Z,20.78
2022-08-22T12:56:47.229Z,20.85
2022-08-22T12:59:49.521Z,20.93
2022-08-22T13:02:36.038Z,20.96
2022-08-22T13:05:23.946Z,21.00
2022-08-22T13:08:07.368Z,21.04
2022-08-22T13:10:51.111Z,21.10
2022-08-22T13:13:42.165Z,21.18
2022-08-22T13:16:19.871Z,21.23
2022-08-22T13:19:07.569Z,21.28
2022-08-22T13:21:49.125Z,21.32
2022-08-22T13:24:52.581Z,21.39
2022-08-22T13:27:51.289Z,21.43
2022-08-22T13:30:33.574Z,21.45
2022-08-22T13:33:24.995Z,21.45
2022-08-22T13:36:08.169Z,21.41
2022-08-22T13:39:03.612Z,21.41
2022-08-22T13:41:50.605Z,21.43
2022-08-22T13:48:04.140Z,21.39
2022-08-22T13:51:41.386Z,21.41
2022-08-22T13:54:49.523Z,21.39
2022-08-22T13:57:51.942Z,21.37
2022-08-22T14:00:57.662Z,21.36
2022-08-22T14:04:36.070Z,21.32
2022-08-22T14:08:05.313Z,21.25
2022-08-22T14:11:01.994Z,21.21
2022-08-22T14:14:04.386Z,21.22
2022-08-22T14:16:52.163Z,21.25
2022-08-22T14:19:59.799Z,21.24
2022-08-22T14:22:47.377Z,21.24
2022-08-22T14:25:35.932Z,21.25
2022-08-22T14:28:38.628Z,21.26
2022-08-22T14:31:14.776Z,21.31
2022-08-22T14:34:10.957Z,21.33
2022-08-22T14:36:57.843Z,21.30
2022-08-22T14:39:57.206Z,21.28
2022-08-22T14:43:06.817Z,21.27
2022-08-22T14:45:57.715Z,21.20
2022-08-22T14:49:13.867Z,21.21
2022-08-22T14:52:37.863Z,21.26
2022-08-22T14:55:21.979Z,21.26
2022-08-22T14:58:08.376Z,21.29
2022-08-22T15:00:47.056Z,21.32
2022-08-22T15:03:38.720Z,21.34
2022-08-22T15:06:36.519Z,21.37
2022-08-22T15:09:26.959Z,21.41
2022-08-22T15:11:59.556Z,21.47
2022-08-22T15:14:53.313Z,21.50
2022-08-22T15:18:01.176Z,21.52
2022-08-22T15:20:45.492Z,21.54
2022-08-22T15:23:24.965Z,21.54
2022-08-22T15:26:13.239Z,21.53
2022-08-22T15:28:52.664Z,21.55
2022-08-22T15:31:29.284Z,21.54
2022-08-22T15:34:26.405Z,21.53
2022-08-22T15:37:18.847Z,21.53
2022-08-22T15:40:15.277Z,21.51
2022-08-22T15:42:51.675Z,21.45
2022-08-22T15:45:39.194Z,21.42
2022-08-22T15:49:03.219Z,21.38
2022-08-22T15:54:51.445Z,21.31
2022-08-22T15:57:38.736Z,21.29
2022-08-22T16:00:43.706Z,21.28
2022-08-22T16:03:34.718Z,21.27
2022-08-22T16:06:50.637Z,21.28
2022-08-22T16:09:54.376Z,21.28
2022-08-22T16:12:46.027Z,21.28
2022-08-22T16:16:04.157Z,21.27
2022-08-22T16:18:52.235Z,21.25
2022-08-22T16:21:27.804Z,21.26
2022-08-22T16:24:04.009Z,21.25
2022-08-22T16:26:41.191Z,21.26
2022-08-22T16:29:34.033Z,21.25
2022-08-22T16:32:32.232Z,21.20
2022-08-22T16:35:11.562Z,21.18
2022-08-22T16:37:53.758Z,21.19
2022-08-22T16:40:54.586Z,21.16
2022-08-22T16:43:28.871Z,21.12
2022-08-22T16:46:36.578Z,21.10
2022-08-22T16:49:24.444Z,21.08
2022-08-22T16:52:30.725Z,21.08
2022-08-22T16:55:34.658Z,21.05
2022-08-22T16:58:56.946Z,21.04
2022-08-22T17:02:13.802Z,21.01
2022-08-22T17:05:31.420Z,21.00
2022-08-22T17:08:29.327Z,20.98
2022-08-22T17:11:43.642Z,20.90
2022-08-22T17:14:40.505Z,20.89
2022-08-22T17:17:53.040Z,20.89
2022-08-22T17:21:41.466Z,20.88
2022-08-22T17:25:08.854Z,20.84
2022-08-22T17:27:53.070Z,20.83
2022-08-22T17:30:43.522Z,20.84
2022-08-22T17:33:51.883Z,20.85
2022-08-22T17:36:27.069Z,20.79
2022-08-22T17:39:34.021Z,20.81
2022-08-22T17:42:38.593Z,20.83
2022-08-22T17:45:34.257Z,20.83
2022-08-22T17:48:41.025Z,20.81
2022-08-22T17:51:45.391Z,20.80
2022-08-22T17:55:03.108Z,20.78
2022-08-22T17:58:01.476Z,20.76
2022-08-22T18:00:56.567Z,20.74
2022-08-22T18:03:41.157Z,20.72
2022-08-22T18:12:15.814Z,20.65
2022-08-22T18:15:31.303Z,20.58
2022-08-22T18:18:31.606Z,20.59
2022-08-22T18:21:54.033Z,20.60
2022-08-22T18:24:50.432Z,20.60
2022-08-22T18:27:47.609Z,20.62
2022-08-22T18:30:51.318Z,20.62
2022-08-22T18:34:12.912Z,20.63
2022-08-22T18:37:14.901Z,20.62
2022-08-22T18:40:28.486Z,20.64
2022-08-22T18:43:23.257Z,20.61
2022-08-22T18:46:27.887Z,20.60
2022-08-22T18:49:36.962Z,20.59
2022-08-22T18:52:44.450Z,20.59
2022-08-22T18:55:54.682Z,20.59
2022-08-22T18:59:09.269Z,20.57
2022-08-22T19:02:06.463Z,20.52
2022-08-22T19:05:27.048Z,20.40
2022-08-22T19:08:54.462Z,20.39
2022-08-22T19:12:13.707Z,20.38
2022-08-22T19:15:40.584Z,20.36
2022-08-22T19:18:52.962Z,20.35
2022-08-22T19:21:56.673Z,20.35
2022-08-22T19:25:01.986Z,20.36
2022-08-22T19:28:20.550Z,20.38
2022-08-22T19:31:21.700Z,20.38
2022-08-22T19:34:29.530Z,20.39
2022-08-22T19:37:30.675Z,20.40
2022-08-22T19:40:58.362Z,20.40
2022-08-22T19:43:41.324Z,20.39
2022-08-22T19:46:37.272Z,20.39
2022-08-22T19:50:02.219Z,20.38
2022-08-22T19:52:57.210Z,20.36
2022-08-22T19:55:39.303Z,20.35
2022-08-22T19:58:54.806Z,20.35
2022-08-22T20:02:01.347Z,20.31
2022-08-22T20:05:14.976Z,20.26
2022-08-22T20:08:44.979Z,20.20
2022-08-22T20:46:59.426Z,19.61
2022-08-22T20:50:11.243Z,19.47
2022-08-22T20:52:51.842Z,19.38
2022-08-22T20:55:57.725Z,19.34
2022-08-22T20:59:15.238Z,19.28
2022-08-22T21:02:54.397Z,19.23
2022-08-22T21:14:01.636Z,19.12
2022-08-22T21:25:21.103Z,19.09
2022-08-22T21:29:37.557Z,19.10
2022-08-22T21:32:55.527Z,19.07
2022-08-22T21:36:42.633Z,19.03
2022-08-22T21:40:14.498Z,18.96
2022-08-22T21:43:37.985Z,18.90
2022-08-22T21:46:45.846Z,18.84
2022-08-22T21:49:34.241Z,18.82
2022-08-22T21:52:11.376Z,18.79
2022-08-22T21:54:44.722Z,18.78
2022-08-22T21:58:03.342Z,18.78
2022-08-22T22:05:12.930Z,18.70
2022-08-22T22:08:23.695Z,18.66
2022-08-22T22:12:08.240Z,18.62
2022-08-22T22:15:43.344Z,18.61
2022-08-22T22:30:10.390Z,18.68
2022-08-22T22:33:32.296Z,18.70
2022-08-22T22:37:01.550Z,18.71
2022-08-22T22:40:35.613Z,18.74
2022-08-22T22:44:09.088Z,18.73
2022-08-22T22:47:43.504Z,18.72
2022-08-22T22:51:38.174Z,18.72
2022-08-22T22:54:47.385Z,18.72
2022-08-22T22:58:30.600Z,18.69
2022-08-22T23:03:08.701Z,18.64
2022-08-22T23:07:00.354Z,18.59
2022-08-22T23:14:49.488Z,18.50
2022-08-22T23:17:56.767Z,18.46
2022-08-22T23:21:07.050Z,18.44
2022-08-22T23:24:46.309Z,18.40
2022-08-22T23:28:37.330Z,18.39
2022-08-22T23:32:14.000Z,18.37
2022-08-22T23:38:56.471Z,18.36
2022-08-22T23:42:10.349Z,18.36
2022-08-22T23:45:27.379Z,18.39
2022-08-22T23:48:56.225Z,18.41
2022-08-22T23:52:45.536Z,18.40
2022-08-22T23:56:49.765Z,18.41
